sensor_id;sensor_type;location;lat;lon;timestamp;pressure;altitude;pressure_sealevel;temperature;humidity
72798;BME280;61084;55.816;37.036;2022-09-21T00:00:30;99416.38;;;8.22;70.02
72798;BME280;61084;55.816;37.036;2022-09-21T00:02:56;99416.31;;;8.24;69.65
72798;BME280;61084;55.816;37.036;2022-09-21T00:05:23;99424.16;;;8.24;69.98
72798;BME280;61084;55.816;37.036;2022-09-21T00:07:49;99434.66;;;8.22;69.66
72798;BME280;61084;55.816;37.036;2022-09-21T00:10:16;99425.19;;;8.20;69.65
72798;BME280;61084;55.816;37.036;2022-09-21T00:12:45;99427.16;;;8.15;69.48
72798;BME280;61084;55.816;37.036;2022-09-21T00:15:14;99429.97;;;8.10;69.72
72798;BME280;61084;55.816;37.036;2022-09-21T00:17:42;99428.34;;;8.08;69.49
72798;BME280;61084;55.816;37.036;2022-09-21T00:20:08;99427.56;;;8.06;69.46
72798;BME280;61084;55.816;37.036;2022-09-21T00:22:34;99421.63;;;8.02;69.64
72798;BME280;61084;55.816;37.036;2022-09-21T00:25:01;99429.50;;;8.01;69.48
72798;BME280;61084;55.816;37.036;2022-09-21T00:27:30;99423.50;;;7.99;69.52
72798;BME280;61084;55.816;37.036;2022-09-21T00:29:57;99422.78;;;7.95;69.65
72798;BME280;61084;55.816;37.036;2022-09-21T00:32:23;99424.53;;;7.95;69.50
72798;BME280;61084;55.816;37.036;2022-09-21T00:34:50;99420.25;;;7.94;69.74
72798;BME280;61084;55.816;37.036;2022-09-21T00:37:17;99436.03;;;7.91;69.64
72798;BME280;61084;55.816;37.036;2022-09-21T00:39:43;99428.19;;;7.91;69.71
72798;BME280;61084;55.816;37.036;2022-09-21T00:42:12;99431.78;;;7.88;69.71
72798;BME280;61084;55.816;37.036;2022-09-21T00:44:39;99437.13;;;7.85;69.72
72798;BME280;61084;55.816;37.036;2022-09-21T00:47:13;99434.66;;;7.82;69.78
72798;BME280;61084;55.816;37.036;2022-09-21T00:49:42;99445.97;;;7.83;69.63
72798;BME280;61084;55.816;37.036;2022-09-21T00:52:10;99443.47;;;7.80;69.52
72798;BME280;61084;55.816;37.036;2022-09-21T00:54:46;99442.75;;;7.76;69.71
72798;BME280;61084;55.816;37.036;2022-09-21T00:57:15;99444.63;;;7.73;70.35
72798;BME280;61084;55.816;37.036;2022-09-21T00:59:43;99438.53;;;7.72;70.07
72798;BME280;61084;55.816;37.036;2022-09-21T01:02:09;99429.88;;;7.72;69.84
72798;BME280;61084;55.816;37.036;2022-09-21T01:04:37;99436.94;;;7.70;70.26
72798;BME280;61084;55.816;37.036;2022-09-21T01:07:08;99433.56;;;7.66;70.18
72798;BME280;61084;55.816;37.036;2022-09-21T01:09:38;99433.72;;;7.63;70.27
72798;BME280;61084;55.816;37.036;2022-09-21T01:15:15;99431.88;;;7.65;70.32
72798;BME280;61084;55.816;37.036;2022-09-21T01:31:20;99434.88;;;7.56;70.28
72798;BME280;61084;55.816;37.036;2022-09-21T01:33:51;99427.91;;;7.56;70.21
72798;BME280;61084;55.816;37.036;2022-09-21T01:36:23;99429.66;;;7.56;70.53
72798;BME280;61084;55.816;37.036;2022-09-21T01:38:54;99432.25;;;7.56;70.24
72798;BME280;61084;55.816;37.036;2022-09-21T01:41:23;99431.41;;;7.55;70.55
72798;BME280;61084;55.816;37.036;2022-09-21T01:43:53;99435.84;;;7.53;70.33
72798;BME280;61084;55.816;37.036;2022-09-21T01:46:24;99431.50;;;7.52;70.56
72798;BME280;61084;55.816;37.036;2022-09-21T01:48:54;99429.13;;;7.48;70.30
72798;BME280;61084;55.816;37.036;2022-09-21T01:51:21;99429.16;;;7.46;70.55
72798;BME280;61084;55.816;37.036;2022-09-21T01:54:02;99434.44;;;7.45;70.47
72798;BME280;61084;55.816;37.036;2022-09-21T01:56:34;99431.84;;;7.45;70.63
72798;BME280;61084;55.816;37.036;2022-09-21T02:01:31;99429.28;;;7.43;70.81
72798;BME280;61084;55.816;37.036;2022-09-21T02:04:03;99431.94;;;7.42;70.40
72798;BME280;61084;55.816;37.036;2022-09-21T02:06:33;99435.47;;;7.41;70.44
72798;BME280;61084;55.816;37.036;2022-09-21T02:08:59;99437.25;;;7.40;70.02
72798;BME280;61084;55.816;37.036;2022-09-21T02:11:25;99441.66;;;7.38;70.51
72798;BME280;61084;55.816;37.036;2022-09-21T02:13:52;99446.03;;;7.38;69.99
72798;BME280;61084;55.816;37.036;2022-09-21T02:16:29;99444.34;;;7.37;70.27
72798;BME280;61084;55.816;37.036;2022-09-21T02:19:17;99441.78;;;7.35;70.50
72798;BME280;61084;55.816;37.036;2022-09-21T02:22:01;99445.31;;;7.34;70.54
72798;BME280;61084;55.816;37.036;2022-09-21T02:24:44;99443.66;;;7.32;70.20
72798;BME280;61084;55.816;37.036;2022-09-21T02:30:10;99446.38;;;7.29;70.46
72798;BME280;61084;55.816;37.036;2022-09-21T02:32:58;99459.59;;;7.26;70.51
72798;BME280;61084;55.816;37.036;2022-09-21T02:35:31;99461.34;;;7.25;70.37
72798;BME280;61084;55.816;37.036;2022-09-21T02:38:11;99460.47;;;7.25;70.45
72798;BME280;61084;55.816;37.036;2022-09-21T02:41:06;99458.00;;;7.22;70.49
72798;BME280;61084;55.816;37.036;2022-09-21T02:46:29;99461.75;;;7.15;70.25
72798;BME280;61084;55.816;37.036;2022-09-21T02:49:03;99464.44;;;7.13;70.42
72798;BME280;61084;55.816;37.036;2022-09-21T02:51:35;99461.00;;;7.11;70.29
72798;BME280;61084;55.816;37.036;2022-09-21T02:54:03;99468.03;;;7.09;70.53
72798;BME280;61084;55.816;37.036;2022-09-21T02:56:31;99466.34;;;7.08;70.42
72798;BME280;61084;55.816;37.036;2022-09-21T02:59:00;99461.13;;;7.08;70.65
72798;BME280;61084;55.816;37.036;2022-09-21T03:01:28;99461.19;;;7.07;70.40
72798;BME280;61084;55.816;37.036;2022-09-21T03:03:55;99462.97;;;7.05;70.24
72798;BME280;61084;55.816;37.036;2022-09-21T03:06:21;99454.44;;;7.01;70.61
72798;BME280;61084;55.816;37.036;2022-09-21T03:08:47;99460.44;;;7.03;70.34
72798;BME280;61084;55.816;37.036;2022-09-21T03:11:17;99454.38;;;7.03;70.54
72798;BME280;61084;55.816;37.036;2022-09-21T03:13:43;99460.50;;;7.02;70.29
72798;BME280;61084;55.816;37.036;2022-09-21T03:16:10;99456.97;;;7.03;70.42
72798;BME280;61084;55.816;37.036;2022-09-21T03:18:36;99453.53;;;7.02;70.27
72798;BME280;61084;55.816;37.036;2022-09-21T03:21:02;99452.75;;;7.00;70.64
72798;BME280;61084;55.816;37.036;2022-09-21T03:23:28;99451.88;;;7.00;70.18
72798;BME280;61084;55.816;37.036;2022-09-21T03:25:54;99456.25;;;6.99;70.72
72798;BME280;61084;55.816;37.036;2022-09-21T03:28:20;99451.03;;;6.99;70.68
72798;BME280;61084;55.816;37.036;2022-09-21T03:30:48;99448.44;;;6.99;70.92
72798;BME280;61084;55.816;37.036;2022-09-21T03:33:15;99458.88;;;6.99;70.47
72798;BME280;61084;55.816;37.036;2022-09-21T03:35:40;99453.56;;;7.01;70.86
72798;BME280;61084;55.816;37.036;2022-09-21T03:38:07;99457.03;;;7.01;70.50
72798;BME280;61084;55.816;37.036;2022-09-21T03:40:33;99451.81;;;7.01;70.35
72798;BME280;61084;55.816;37.036;2022-09-21T03:42:59;99450.94;;;7.02;70.83
72798;BME280;61084;55.816;37.036;2022-09-21T03:45:25;99449.09;;;7.04;70.59
72798;BME280;61084;55.816;37.036;2022-09-21T03:47:59;99452.50;;;7.06;70.77
72798;BME280;61084;55.816;37.036;2022-09-21T03:50:27;99448.00;;;7.10;71.08
72798;BME280;61084;55.816;37.036;2022-09-21T03:52:54;99449.59;;;7.14;70.83
72798;BME280;61084;55.816;37.036;2022-09-21T03:55:21;99451.13;;;7.19;71.25
72798;BME280;61084;55.816;37.036;2022-09-21T03:57:47;99443.13;;;7.24;71.55
72798;BME280;61084;55.816;37.036;2022-09-21T04:00:13;99455.22;;;7.26;71.43
72798;BME280;61084;55.816;37.036;2022-09-21T04:02:39;99449.00;;;7.29;71.84
72798;BME280;61084;55.816;37.036;2022-09-21T04:05:07;99449.78;;;7.31;71.74
72798;BME280;61084;55.816;37.036;2022-09-21T04:07:34;99460.13;;;7.34;72.24
72798;BME280;61084;55.816;37.036;2022-09-21T04:10:02;99449.59;;;7.35;72.29
72798;BME280;61084;55.816;37.036;2022-09-21T04:12:29;99456.56;;;7.36;72.03
72798;BME280;61084;55.816;37.036;2022-09-21T04:14:56;99450.41;;;7.37;72.42
72798;BME280;61084;55.816;37.036;2022-09-21T04:17:21;99453.84;;;7.39;72.23
72798;BME280;61084;55.816;37.036;2022-09-21T04:19:47;99456.22;;;7.44;72.20
72798;BME280;61084;55.816;37.036;2022-09-21T04:22:13;99455.22;;;7.48;72.53
72798;BME280;61084;55.816;37.036;2022-09-21T04:24:39;99449.88;;;7.51;72.45
72798;BME280;61084;55.816;37.036;2022-09-21T04:27:09;99454.00;;;7.56;72.67
72798;BME280;61084;55.816;37.036;2022-09-21T04:29:35;99443.25;;;7.64;72.63
72798;BME280;61084;55.816;37.036;2022-09-21T04:32:02;99447.41;;;7.68;73.05
72798;BME280;61084;55.816;37.036;2022-09-21T04:34:29;99444.59;;;7.74;73.40
72798;BME280;61084;55.816;37.036;2022-09-21T04:36:56;99446.78;;;7.83;73.30
72798;BME280;61084;55.816;37.036;2022-09-21T04:39:23;99452.50;;;7.93;73.50
72798;BME280;61084;55.816;37.036;2022-09-21T04:41:49;99459.13;;;8.01;73.57
72798;BME280;61084;55.816;37.036;2022-09-21T04:44:15;99462.25;;;8.09;73.78
72798;BME280;61084;55.816;37.036;2022-09-21T04:46:43;99459.31;;;8.17;73.91
72798;BME280;61084;55.816;37.036;2022-09-21T04:49:08;99455.53;;;8.24;73.96
72798;BME280;61084;55.816;37.036;2022-09-21T04:51:35;99458.81;;;8.29;74.08
72798;BME280;61084;55.816;37.036;2022-09-21T04:54:02;99458.59;;;8.35;74.47
72798;BME280;61084;55.816;37.036;2022-09-21T04:56:28;99465.03;;;8.47;74.44
72798;BME280;61084;55.816;37.036;2022-09-21T04:58:54;99461.25;;;8.54;74.46
72798;BME280;61084;55.816;37.036;2022-09-21T05:01:20;99453.97;;;8.60;74.46
72798;BME280;61084;55.816;37.036;2022-09-21T05:03:46;99457.16;;;8.67;73.96
72798;BME280;61084;55.816;37.036;2022-09-21T05:06:12;99450.75;;;8.74;74.28
72798;BME280;61084;55.816;37.036;2022-09-21T05:08:39;99460.94;;;8.80;74.31
72798;BME280;61084;55.816;37.036;2022-09-21T05:11:24;99461.44;;;8.88;74.19
72798;BME280;61084;55.816;37.036;2022-09-21T05:13:50;99456.72;;;8.96;74.16
72798;BME280;61084;55.816;37.036;2022-09-21T05:16:17;99453.75;;;9.03;74.14
72798;BME280;61084;55.816;37.036;2022-09-21T05:18:43;99454.31;;;9.10;74.72
72798;BME280;61084;55.816;37.036;2022-09-21T05:21:13;99458.28;;;9.19;74.37
72798;BME280;61084;55.816;37.036;2022-09-21T05:23:39;99454.53;;;9.24;74.40
72798;BME280;61084;55.816;37.036;2022-09-21T05:26:06;99457.72;;;9.31;74.26
72798;BME280;61084;55.816;37.036;2022-09-21T05:28:32;99458.28;;;9.37;74.44
72798;BME280;61084;55.816;37.036;2022-09-21T05:31:27;99451.88;;;9.43;74.26
72798;BME280;61084;55.816;37.036;2022-09-21T05:33:53;99463.78;;;9.50;74.41
72798;BME280;61084;55.816;37.036;2022-09-21T05:39:02;99462.28;;;9.63;74.25
72798;BME280;61084;55.816;37.036;2022-09-21T05:41:28;99465.50;;;9.68;74.34
72798;BME280;61084;55.816;37.036;2022-09-21T05:43:54;99462.53;;;9.75;74.15
72798;BME280;61084;55.816;37.036;2022-09-21T05:46:58;99461.31;;;9.82;74.38
72798;BME280;61084;55.816;37.036;2022-09-21T05:57:20;99462.13;;;10.19;74.60
72798;BME280;61084;55.816;37.036;2022-09-21T06:04:58;99462.03;;;10.37;74.77
72798;BME280;61084;55.816;37.036;2022-09-21T06:07:28;99456.41;;;10.45;74.58
72798;BME280;61084;55.816;37.036;2022-09-21T06:09:54;99464.81;;;10.51;74.55
72798;BME280;61084;55.816;37.036;2022-09-21T06:12:19;99468.88;;;10.57;74.58
72798;BME280;61084;55.816;37.036;2022-09-21T06:14:45;99460.63;;;10.65;74.47
72798;BME280;61084;55.816;37.036;2022-09-21T06:17:11;99462.16;;;10.69;74.41
72798;BME280;61084;55.816;37.036;2022-09-21T06:19:37;99461.06;;;10.73;74.47
72798;BME280;61084;55.816;37.036;2022-09-21T06:22:03;99458.28;;;10.76;74.34
72798;BME280;61084;55.816;37.036;2022-09-21T06:24:29;99463.41;;;10.79;74.22
72798;BME280;61084;55.816;37.036;2022-09-21T06:26:55;99466.69;;;10.82;74.63
72798;BME280;61084;55.816;37.036;2022-09-21T06:29:20;99465.44;;;10.89;74.42
72798;BME280;61084;55.816;37.036;2022-09-21T06:31:49;99461.72;;;10.93;74.47
72798;BME280;61084;55.816;37.036;2022-09-21T06:34:16;99462.25;;;11.00;74.66
72798;BME280;61084;55.816;37.036;2022-09-21T06:36:42;99464.44;;;11.07;74.57
72798;BME280;61084;55.816;37.036;2022-09-21T06:39:08;99473.59;;;11.16;74.33
72798;BME280;61084;55.816;37.036;2022-09-21T06:41:34;99472.53;;;11.20;74.62
72798;BME280;61084;55.816;37.036;2022-09-21T06:44:00;99470.47;;;11.25;74.69
72798;BME280;61084;55.816;37.036;2022-09-21T06:46:26;99459.63;;;11.31;74.46
72798;BME280;61084;55.816;37.036;2022-09-21T06:48:52;99454.88;;;11.37;74.52
72798;BME280;61084;55.816;37.036;2022-09-21T06:51:18;99460.59;;;11.46;74.52
72798;BME280;61084;55.816;37.036;2022-09-21T06:53:46;99462.97;;;11.50;74.47
72798;BME280;61084;55.816;37.036;2022-09-21T06:56:13;99458.97;;;11.59;74.46
72798;BME280;61084;55.816;37.036;2022-09-21T06:58:38;99460.28;;;11.66;74.54
72798;BME280;61084;55.816;37.036;2022-09-21T07:01:06;99459.91;;;11.73;74.34
72798;BME280;61084;55.816;37.036;2022-09-21T07:03:32;99461.06;;;11.83;74.04
72798;BME280;61084;55.816;37.036;2022-09-21T07:05:59;99463.28;;;11.91;74.14
72798;BME280;61084;55.816;37.036;2022-09-21T07:08:24;99463.53;;;12.02;74.21
72798;BME280;61084;55.816;37.036;2022-09-21T07:10:52;99470.69;;;12.14;73.79
72798;BME280;61084;55.816;37.036;2022-09-21T07:13:17;99477.03;;;12.26;73.91
72798;BME280;61084;55.816;37.036;2022-09-21T07:15:43;99470.09;;;12.39;74.11
72798;BME280;61084;55.816;37.036;2022-09-21T07:18:11;99465.81;;;12.52;74.11
72798;BME280;61084;55.816;37.036;2022-09-21T07:20:37;99464.41;;;12.60;73.51
72798;BME280;61084;55.816;37.036;2022-09-21T07:23:14;99468.56;;;12.64;73.52
72798;BME280;61084;55.816;37.036;2022-09-21T07:25:41;99465.38;;;12.73;73.54
72798;BME280;61084;55.816;37.036;2022-09-21T07:28:08;99466.00;;;12.77;73.36
72798;BME280;61084;55.816;37.036;2022-09-21T07:30:36;99457.84;;;12.81;73.15
72798;BME280;61084;55.816;37.036;2022-09-21T07:33:03;99454.00;;;12.87;73.05
72798;BME280;61084;55.816;37.036;2022-09-21T07:35:30;99452.66;;;12.94;72.87
72798;BME280;61084;55.816;37.036;2022-09-21T07:38:00;99452.19;;;13.02;72.78
72798;BME280;61084;55.816;37.036;2022-09-21T07:40:26;99457.84;;;13.10;72.75
72798;BME280;61084;55.816;37.036;2022-09-21T07:42:56;99469.81;;;13.15;72.66
72798;BME280;61084;55.816;37.036;2022-09-21T07:45:22;99463.41;;;13.19;72.42
72798;BME280;61084;55.816;37.036;2022-09-21T07:47:50;99464.81;;;13.25;72.40
72798;BME280;61084;55.816;37.036;2022-09-21T07:50:21;99471.22;;;13.35;72.13
72798;BME280;61084;55.816;37.036;2022-09-21T07:52:48;99466.41;;;13.41;72.15
72798;BME280;61084;55.816;37.036;2022-09-21T07:55:14;99464.41;;;13.45;71.90
72798;BME280;61084;55.816;37.036;2022-09-21T07:57:40;99459.78;;;13.48;71.72
72798;BME280;61084;55.816;37.036;2022-09-21T08:00:24;99457.69;;;13.53;71.64
72798;BME280;61084;55.816;37.036;2022-09-21T08:02:53;99468.81;;;13.58;71.46
72798;BME280;61084;55.816;37.036;2022-09-21T08:05:19;99467.47;;;13.66;71.27
72798;BME280;61084;55.816;37.036;2022-09-21T08:07:45;99461.81;;;13.72;71.32
72798;BME280;61084;55.816;37.036;2022-09-21T08:10:11;99465.81;;;13.77;71.18
72798;BME280;61084;55.816;37.036;2022-09-21T08:12:37;99462.69;;;13.85;70.99
72798;BME280;61084;55.816;37.036;2022-09-21T08:15:04;99465.78;;;13.91;70.84
72798;BME280;61084;55.816;37.036;2022-09-21T08:17:29;99466.97;;;14.00;70.93
72798;BME280;61084;55.816;37.036;2022-09-21T08:19:55;99461.28;;;14.06;70.89
72798;BME280;61084;55.816;37.036;2022-09-21T08:22:21;99460.88;;;14.12;70.75
72798;BME280;61084;55.816;37.036;2022-09-21T08:24:50;99463.13;;;14.18;70.41
72798;BME280;61084;55.816;37.036;2022-09-21T08:27:17;99454.69;;;14.25;70.37
72798;BME280;61084;55.816;37.036;2022-09-21T08:29:44;99451.56;;;14.33;70.28
72798;BME280;61084;55.816;37.036;2022-09-21T08:32:11;99451.88;;;14.41;70.06
72798;BME280;61084;55.816;37.036;2022-09-21T08:34:36;99455.91;;;14.47;69.82
72798;BME280;61084;55.816;37.036;2022-09-21T08:37:02;99452.09;;;14.51;69.42
72798;BME280;61084;55.816;37.036;2022-09-21T08:39:28;99450.72;;;14.58;69.32
72798;BME280;61084;55.816;37.036;2022-09-21T08:44:30;99448.63;;;14.75;69.26
72798;BME280;61084;55.816;37.036;2022-09-21T08:49:35;99438.91;;;14.88;68.96
72798;BME280;61084;55.816;37.036;2022-09-21T08:52:06;99448.09;;;14.95;68.49
72798;BME280;61084;55.816;37.036;2022-09-21T08:54:54;99441.53;;;15.01;68.59
72798;BME280;61084;55.816;37.036;2022-09-21T08:57:27;99437.50;;;15.08;68.28
72798;BME280;61084;55.816;37.036;2022-09-21T08:59:54;99434.41;;;15.14;68.43
72798;BME280;61084;55.816;37.036;2022-09-21T09:02:42;99438.31;;;15.21;68.46
72798;BME280;61084;55.816;37.036;2022-09-21T09:08:24;99442.91;;;15.43;67.74
72798;BME280;61084;55.816;37.036;2022-09-21T09:13:47;99443.94;;;15.65;67.29
72798;BME280;61084;55.816;37.036;2022-09-21T09:22:05;99443.56;;;15.82;66.82
72798;BME280;61084;55.816;37.036;2022-09-21T09:24:44;99437.78;;;15.89;66.29
72798;BME280;61084;55.816;37.036;2022-09-21T09:27:29;99431.31;;;15.93;66.04
72798;BME280;61084;55.816;37.036;2022-09-21T09:30:02;99436.50;;;15.94;64.76
72798;BME280;61084;55.816;37.036;2022-09-21T09:32:35;99424.81;;;15.97;64.96
72798;BME280;61084;55.816;37.036;2022-09-21T09:37:47;99425.50;;;16.11;65.49
72798;BME280;61084;55.816;37.036;2022-09-21T09:40:16;99421.53;;;16.17;65.24
72798;BME280;61084;55.816;37.036;2022-09-21T09:43:20;99418.31;;;16.24;64.81
72798;BME280;61084;55.816;37.036;2022-09-21T09:51:02;99414.84;;;16.35;64.72
72798;BME280;61084;55.816;37.036;2022-09-21T09:53:29;99411.34;;;16.34;63.95
72798;BME280;61084;55.816;37.036;2022-09-21T09:55:57;99410.75;;;16.31;64.20
72798;BME280;61084;55.816;37.036;2022-09-21T10:00:54;99402.19;;;16.27;63.43
72798;BME280;61084;55.816;37.036;2022-09-21T10:03:22;99403.16;;;16.26;63.60
72798;BME280;61084;55.816;37.036;2022-09-21T10:05:49;99410.25;;;16.26;63.30
72798;BME280;61084;55.816;37.036;2022-09-21T10:11:12;99411.91;;;16.16;62.92
72798;BME280;61084;55.816;37.036;2022-09-21T10:13:44;99412.88;;;16.15;63.31
72798;BME280;61084;55.816;37.036;2022-09-21T10:19:00;99414.09;;;16.22;63.89
72798;BME280;61084;55.816;37.036;2022-09-21T10:21:39;99411.78;;;16.17;63.91
72798;BME280;61084;55.816;37.036;2022-09-21T10:24:32;99414.66;;;16.14;62.70
72798;BME280;61084;55.816;37.036;2022-09-21T10:27:11;99410.69;;;16.09;63.14
72798;BME280;61084;55.816;37.036;2022-09-21T10:29:43;99415.25;;;16.07;63.49
72798;BME280;61084;55.816;37.036;2022-09-21T10:34:38;99417.66;;;16.10;63.81
72798;BME280;61084;55.816;37.036;2022-09-21T10:39:53;99412.00;;;16.14;63.90
72798;BME280;61084;55.816;37.036;2022-09-21T10:42:20;99413.72;;;16.15;64.15
72798;BME280;61084;55.816;37.036;2022-09-21T10:44:49;99416.47;;;16.14;63.39
72798;BME280;61084;55.816;37.036;2022-09-21T10:47:21;99410.34;;;16.13;63.54
72798;BME280;61084;55.816;37.036;2022-09-21T10:49:54;99410.34;;;16.13;63.33
72798;BME280;61084;55.816;37.036;2022-09-21T10:52:31;99413.44;;;16.07;63.10
72798;BME280;61084;55.816;37.036;2022-09-21T10:54:58;99410.78;;;16.07;63.27
72798;BME280;61084;55.816;37.036;2022-09-21T10:57:25;99404.66;;;16.07;63.40
72798;BME280;61084;55.816;37.036;2022-09-21T10:59:52;99403.94;;;16.05;63.36
72798;BME280;61084;55.816;37.036;2022-09-21T11:02:35;99416.44;;;16.03;62.63
72798;BME280;61084;55.816;37.036;2022-09-21T11:05:13;99413.56;;;16.06;62.44
72798;BME280;61084;55.816;37.036;2022-09-21T11:18:21;99408.38;;;16.04;62.50
72798;BME280;61084;55.816;37.036;2022-09-21T11:23:46;99407.06;;;16.10;62.95
72798;BME280;61084;55.816;37.036;2022-09-21T11:26:24;99404.31;;;16.11;62.36
72798;BME280;61084;55.816;37.036;2022-09-21T11:29:04;99414.91;;;16.11;62.13
72798;BME280;61084;55.816;37.036;2022-09-21T11:45:53;99391.28;;;16.08;62.22
72798;BME280;61084;55.816;37.036;2022-09-21T11:51:28;99389.16;;;16.13;62.29
72798;BME280;61084;55.816;37.036;2022-09-21T11:56:40;99387.22;;;16.15;61.36
72798;BME280;61084;55.816;37.036;2022-09-21T12:01:58;99381.47;;;16.21;62.54
72798;BME280;61084;55.816;37.036;2022-09-21T12:04:42;99373.75;;;16.18;61.97
72798;BME280;61084;55.816;37.036;2022-09-21T12:15:57;99376.00;;;16.12;61.03
72798;BME280;61084;55.816;37.036;2022-09-21T12:21:51;99374.72;;;16.17;61.12
72798;BME280;61084;55.816;37.036;2022-09-21T12:26:52;99366.78;;;16.17;61.12
72798;BME280;61084;55.816;37.036;2022-09-21T12:32:02;99368.78;;;16.14;61.25
72798;BME280;61084;55.816;37.036;2022-09-21T12:34:41;99368.91;;;16.12;60.55
72798;BME280;61084;55.816;37.036;2022-09-21T12:37:14;99373.63;;;16.09;60.88
72798;BME280;61084;55.816;37.036;2022-09-21T12:42:22;99373.97;;;16.04;61.10
72798;BME280;61084;55.816;37.036;2022-09-21T12:44:55;99376.09;;;15.99;60.89
72798;BME280;61084;55.816;37.036;2022-09-21T12:50:21;99380.53;;;15.99;61.06
72798;BME280;61084;55.816;37.036;2022-09-21T12:52:51;99377.16;;;15.97;60.90
72798;BME280;61084;55.816;37.036;2022-09-21T12:55:45;99378.50;;;15.91;60.64
72798;BME280;61084;55.816;37.036;2022-09-21T13:03:56;99374.47;;;15.85;60.86
72798;BME280;61084;55.816;37.036;2022-09-21T13:09:30;99376.31;;;15.85;60.98
72798;BME280;61084;55.816;37.036;2022-09-21T13:12:05;99379.03;;;15.83;60.69
72798;BME280;61084;55.816;37.036;2022-09-21T13:14:34;99374.59;;;15.84;61.00
72798;BME280;61084;55.816;37.036;2022-09-21T13:17:03;99376.66;;;15.80;60.84
72798;BME280;61084;55.816;37.036;2022-09-21T13:19:32;99377.59;;;15.79;61.33
72798;BME280;61084;55.816;37.036;2022-09-21T13:22:10;99382.28;;;15.76;60.74
72798;BME280;61084;55.816;37.036;2022-09-21T13:24:57;99376.59;;;15.69;60.71
72798;BME280;61084;55.816;37.036;2022-09-21T13:32:58;99371.84;;;15.62;61.64
72798;BME280;61084;55.816;37.036;2022-09-21T13:35:48;99368.72;;;15.57;61.44
72798;BME280;61084;55.816;37.036;2022-09-21T13:38:29;99372.31;;;15.56;61.49
72798;BME280;61084;55.816;37.036;2022-09-21T13:41:01;99375.09;;;15.54;61.92
72798;BME280;61084;55.816;37.036;2022-09-21T13:52:01;99375.63;;;15.47;62.62
72798;BME280;61084;55.816;37.036;2022-09-21T14:00:18;99367.25;;;15.40;63.12
72798;BME280;61084;55.816;37.036;2022-09-21T14:05:42;99372.88;;;15.36;63.65
72798;BME280;61084;55.816;37.036;2022-09-21T14:10:58;99363.00;;;15.27;63.58
72798;BME280;61084;55.816;37.036;2022-09-21T14:19:04;99361.84;;;15.18;63.90
72798;BME280;61084;55.816;37.036;2022-09-21T14:24:40;99357.97;;;15.11;64.19
72798;BME280;61084;55.816;37.036;2022-09-21T14:30:23;99359.56;;;15.01;64.61
72798;BME280;61084;55.816;37.036;2022-09-21T14:33:05;99356.09;;;15.00;64.56
72798;BME280;61084;55.816;37.036;2022-09-21T14:35:36;99356.09;;;15.00;64.58
72798;BME280;61084;55.816;37.036;2022-09-21T14:38:40;99358.84;;;14.99;64.72
72798;BME280;61084;55.816;37.036;2022-09-21T14:41:05;99359.16;;;14.94;64.81
72798;BME280;61084;55.816;37.036;2022-09-21T14:43:34;99354.13;;;14.91;64.64
72798;BME280;61084;55.816;37.036;2022-09-21T14:46:15;99357.81;;;14.89;64.60
72798;BME280;61084;55.816;37.036;2022-09-21T14:49:03;99360.56;;;14.87;64.60
72798;BME280;61084;55.816;37.036;2022-09-21T15:03:15;99367.88;;;14.71;65.22
72798;BME280;61084;55.816;37.036;2022-09-21T15:05:54;99370.53;;;14.71;65.09
72798;BME280;61084;55.816;37.036;2022-09-21T15:12:02;99368.53;;;14.62;65.05
72798;BME280;61084;55.816;37.036;2022-09-21T15:16:59;99367.91;;;14.59;65.26
72798;BME280;61084;55.816;37.036;2022-09-21T15:19:34;99369.06;;;14.55;65.07
72798;BME280;61084;55.816;37.036;2022-09-21T15:22:19;99369.06;;;14.55;65.11
72798;BME280;61084;55.816;37.036;2022-09-21T15:24:49;99367.47;;;14.52;65.22
72798;BME280;61084;55.816;37.036;2022-09-21T15:27:17;99371.28;;;14.48;65.27
72798;BME280;61084;55.816;37.036;2022-09-21T15:29:46;99372.34;;;14.46;65.24
72798;BME280;61084;55.816;37.036;2022-09-21T15:32:36;99376.03;;;14.43;65.43
72798;BME280;61084;55.816;37.036;2022-09-21T15:35:11;99377.94;;;14.41;65.32
72798;BME280;61084;55.816;37.036;2022-09-21T15:37:41;99372.78;;;14.40;65.33
72798;BME280;61084;55.816;37.036;2022-09-21T15:40:21;99380.91;;;14.37;65.50
72798;BME280;61084;55.816;37.036;2022-09-21T15:43:15;99378.56;;;14.32;65.33
72798;BME280;61084;55.816;37.036;2022-09-21T15:46:02;99387.34;;;14.32;65.35
72798;BME280;61084;55.816;37.036;2022-09-21T15:48:33;99391.97;;;14.29;65.21
72798;BME280;61084;55.816;37.036;2022-09-21T15:51:13;99397.56;;;14.24;65.47
72798;BME280;61084;55.816;37.036;2022-09-21T15:53:44;99396.03;;;14.20;65.35
72798;BME280;61084;55.816;37.036;2022-09-21T15:56:25;99394.78;;;14.13;65.36
72798;BME280;61084;55.816;37.036;2022-09-21T15:58:59;99399.41;;;14.10;65.33
72798;BME280;61084;55.816;37.036;2022-09-21T16:01:38;99399.53;;;14.08;65.20
72798;BME280;61084;55.816;37.036;2022-09-21T16:04:18;99402.47;;;14.04;64.83
72798;BME280;61084;55.816;37.036;2022-09-21T16:06:56;99401.00;;;14.00;64.95
72798;BME280;61084;55.816;37.036;2022-09-21T16:11:49;99411.09;;;13.93;64.81
72798;BME280;61084;55.816;37.036;2022-09-21T16:14:16;99408.97;;;13.86;64.73
72798;BME280;61084;55.816;37.036;2022-09-21T16:22:39;99415.25;;;13.71;64.47
72798;BME280;61084;55.816;37.036;2022-09-21T16:30:50;99418.88;;;13.55;63.92
72798;BME280;61084;55.816;37.036;2022-09-21T16:33:39;99416.47;;;13.52;64.22
72798;BME280;61084;55.816;37.036;2022-09-21T16:38:51;99422.03;;;13.48;64.47
72798;BME280;61084;55.816;37.036;2022-09-21T16:41:21;99425.59;;;13.47;64.54
72798;BME280;61084;55.816;37.036;2022-09-21T16:43:48;99423.94;;;13.46;64.63
72798;BME280;61084;55.816;37.036;2022-09-21T16:46:15;99427.59;;;13.43;64.82
72798;BME280;61084;55.816;37.036;2022-09-21T16:48:43;99419.88;;;13.40;64.71
72798;BME280;61084;55.816;37.036;2022-09-21T16:51:10;99418.50;;;13.35;64.89